createdAt,value
2023-03-29T00:01:09.405Z,4.15
2023-03-29T00:03:37.108Z,5.72
2023-03-29T00:06:04.457Z,3.90
2023-03-29T00:08:32.267Z,6.28
2023-03-29T00:11:01.899Z,4.70
2023-03-29T00:13:28.557Z,6.40
2023-03-29T00:15:55.907Z,4.88
2023-03-29T00:18:23.311Z,4.93
2023-03-29T00:20:54.512Z,5.22
2023-03-29T00:23:21.185Z,4.07
2023-03-29T00:25:47.890Z,4.85
2023-03-29T00:28:17.279Z,4.40
2023-03-29T00:30:46.944Z,6.47
2023-03-29T00:33:13.949Z,6.00
2023-03-29T00:35:42.564Z,5.82
2023-03-29T00:38:09.414Z,4.95
2023-03-29T00:40:41.950Z,5.82
2023-03-29T00:43:10.201Z,4.70
2023-03-29T00:45:43.258Z,5.80
2023-03-29T00:48:13.537Z,6.32
2023-03-29T00:50:43.639Z,4.18
2023-03-29T00:53:13.023Z,3.65
2023-03-29T00:55:44.674Z,3.95
2023-03-29T00:58:13.800Z,3.97
2023-03-29T01:00:49.811Z,5.25
2023-03-29T01:03:21.897Z,3.83
2023-03-29T01:05:52.601Z,4.40
2023-03-29T01:10:55.082Z,4.55
2023-03-29T01:13:27.816Z,3.67
2023-03-29T01:15:58.191Z,5.88
2023-03-29T01:18:25.130Z,4.57
2023-03-29T01:21:09.151Z,5.13
2023-03-29T01:23:51.453Z,4.93
2023-03-29T01:26:33.045Z,5.60
2023-03-29T01:29:08.672Z,4.47
2023-03-29T01:31:45.311Z,3.25
2023-03-29T01:34:16.917Z,4.55
2023-03-29T01:36:49.906Z,5.18
2023-03-29T01:39:17.052Z,5.53
2023-03-29T01:41:52.654Z,6.45
2023-03-29T01:44:30.083Z,5.00
2023-03-29T01:47:04.608Z,4.70
2023-03-29T01:49:37.831Z,4.47
2023-03-29T01:52:12.438Z,5.10
2023-03-29T01:54:48.486Z,4.78
2023-03-29T01:57:16.582Z,3.72
2023-03-29T01:59:45.500Z,4.90
2023-03-29T02:02:15.007Z,3.15
2023-03-29T02:04:46.207Z,4.20
2023-03-29T02:07:18.876Z,4.70
2023-03-29T02:09:49.629Z,3.42
2023-03-29T02:12:17.934Z,5.10
2023-03-29T02:14:45.964Z,5.18
2023-03-29T02:17:17.329Z,3.88
2023-03-29T02:19:46.161Z,3.83
2023-03-29T02:22:15.024Z,4.65
2023-03-29T02:24:45.136Z,3.75
2023-03-29T02:27:14.120Z,2.72
2023-03-29T02:29:40.942Z,4.05
2023-03-29T02:32:18.379Z,4.93
2023-03-29T02:34:49.415Z,2.67
2023-03-29T02:37:20.350Z,4.95
2023-03-29T02:39:49.289Z,3.88
2023-03-29T02:42:18.107Z,4.93
2023-03-29T02:44:47.301Z,5.13
2023-03-29T02:47:20.835Z,4.65
2023-03-29T02:49:47.684Z,2.95
2023-03-29T02:52:17.746Z,3.67
2023-03-29T02:54:47.438Z,3.05
2023-03-29T02:57:14.211Z,3.65
2023-03-29T02:59:41.193Z,3.47
2023-03-29T03:02:08.009Z,3.88
2023-03-29T03:04:36.412Z,3.67
2023-03-29T03:07:07.296Z,2.83
2023-03-29T03:09:41.585Z,3.85
2023-03-29T03:12:09.191Z,5.53
2023-03-29T03:14:36.291Z,2.80
2023-03-29T03:17:04.690Z,3.08
2023-03-29T03:19:36.417Z,3.58
2023-03-29T03:22:03.886Z,5.70
2023-03-29T03:24:34.054Z,2.20
2023-03-29T03:27:01.020Z,3.97
2023-03-29T03:29:30.462Z,3.60
2023-03-29T03:32:15.531Z,4.65
2023-03-29T03:35:05.966Z,3.55
2023-03-29T03:37:33.199Z,4.50
2023-03-29T03:40:02.935Z,4.05
2023-03-29T03:42:30.187Z,3.90
2023-03-29T03:44:58.781Z,3.25
2023-03-29T03:47:58.580Z,4.43
2023-03-29T03:51:05.211Z,3.80
2023-03-29T03:53:37.242Z,3.35
2023-03-29T03:56:13.163Z,5.13
2023-03-29T03:59:07.873Z,3.88
2023-03-29T04:01:46.189Z,4.40
2023-03-29T04:04:17.133Z,4.93
2023-03-29T04:06:58.492Z,3.08
2023-03-29T04:09:28.634Z,2.67
2023-03-29T04:12:10.540Z,4.20
2023-03-29T04:14:41.885Z,4.55
2023-03-29T04:17:17.200Z,3.65
2023-03-29T04:19:51.806Z,2.85
2023-03-29T04:22:20.282Z,4.75
2023-03-29T04:24:50.710Z,4.13
2023-03-29T04:27:44.240Z,2.22
2023-03-29T04:30:22.187Z,4.63
2023-03-29T04:33:00.904Z,3.58
2023-03-29T04:35:27.750Z,4.35
2023-03-29T04:37:55.723Z,3.10
2023-03-29T04:40:23.000Z,3.28
2023-03-29T04:43:11.787Z,3.90
2023-03-29T04:45:46.400Z,4.03
2023-03-29T04:48:24.082Z,4.68
2023-03-29T04:50:50.709Z,3.90
2023-03-29T04:53:20.217Z,3.17
2023-03-29T04:55:47.649Z,3.55
2023-03-29T04:58:23.653Z,3.05
2023-03-29T05:03:37.305Z,4.82
2023-03-29T05:06:17.213Z,3.22
2023-03-29T05:08:44.996Z,4.43
2023-03-29T05:11:24.966Z,3.97
2023-03-29T05:13:51.853Z,3.45
2023-03-29T05:16:18.568Z,3.47
2023-03-29T05:18:45.091Z,3.92
2023-03-29T05:21:11.568Z,3.20
2023-03-29T05:23:41.134Z,3.65
2023-03-29T05:26:17.853Z,4.53
2023-03-29T05:28:49.351Z,5.35
2023-03-29T05:31:17.265Z,3.10
2023-03-29T05:33:47.084Z,4.82
2023-03-29T05:36:14.749Z,4.35
2023-03-29T05:38:45.759Z,3.33
2023-03-29T05:41:13.471Z,5.10
2023-03-29T05:44:00.112Z,5.38
2023-03-29T05:46:27.908Z,4.20
2023-03-29T05:48:56.824Z,5.10
2023-03-29T05:51:35.846Z,4.10
2023-03-29T05:54:02.497Z,4.72
2023-03-29T05:56:28.926Z,3.85
2023-03-29T05:58:55.463Z,2.97
2023-03-29T06:01:23.965Z,4.85
2023-03-29T06:03:58.410Z,3.47
2023-03-29T06:06:32.204Z,3.33
2023-03-29T06:08:59.674Z,3.45
2023-03-29T06:11:32.075Z,4.30
2023-03-29T06:14:21.237Z,2.97
2023-03-29T06:16:54.669Z,4.38
2023-03-29T06:19:21.451Z,4.55
2023-03-29T06:21:48.246Z,3.72
2023-03-29T06:24:20.112Z,3.90
2023-03-29T06:26:52.249Z,5.82
2023-03-29T06:29:18.913Z,3.85
2023-03-29T06:31:46.685Z,4.72
2023-03-29T06:34:32.262Z,8.38
2023-03-29T06:37:19.017Z,5.85
2023-03-29T06:39:48.125Z,5.78
2023-03-29T06:42:25.675Z,5.95
2023-03-29T06:45:11.658Z,6.65
2023-03-29T06:47:38.700Z,5.57
2023-03-29T06:50:08.006Z,5.97
2023-03-29T06:52:41.404Z,6.32
2023-03-29T06:55:08.814Z,6.22
2023-03-29T06:57:36.320Z,8.30
2023-03-29T07:00:05.249Z,6.72
2023-03-29T07:02:51.674Z,6.15
2023-03-29T07:05:19.607Z,7.57
2023-03-29T07:07:48.042Z,6.15
2023-03-29T07:10:27.318Z,6.53
2023-03-29T07:13:13.207Z,7.45
2023-03-29T07:15:41.134Z,6.53
2023-03-29T07:18:24.362Z,6.63
2023-03-29T07:20:52.126Z,6.05
2023-03-29T07:23:18.617Z,6.53
2023-03-29T07:25:49.438Z,7.00
2023-03-29T07:28:15.918Z,8.07
2023-03-29T07:30:42.415Z,7.43
2023-03-29T07:33:15.500Z,8.00
2023-03-29T07:35:55.928Z,7.28
2023-03-29T07:38:22.878Z,7.57
2023-03-29T07:40:56.076Z,5.07
2023-03-29T07:43:42.075Z,6.60
2023-03-29T07:46:10.704Z,6.85
2023-03-29T07:48:38.460Z,6.25
2023-03-29T07:51:08.807Z,7.55
2023-03-29T07:53:46.778Z,7.00
2023-03-29T07:56:31.607Z,7.05
2023-03-29T07:59:10.955Z,7.13
2023-03-29T08:01:38.831Z,6.28
2023-03-29T08:04:25.621Z,6.25
2023-03-29T08:07:12.347Z,8.02
2023-03-29T08:09:59.057Z,8.07
2023-03-29T08:12:57.827Z,6.88
2023-03-29T08:15:30.770Z,7.50
2023-03-29T08:17:57.356Z,7.43
2023-03-29T08:20:25.357Z,7.60
2023-03-29T08:22:56.561Z,6.70
2023-03-29T08:25:25.595Z,6.93
2023-03-29T08:27:53.781Z,7.43
2023-03-29T08:30:43.434Z,7.18
2023-03-29T08:33:09.900Z,7.68
2023-03-29T08:35:36.429Z,5.13
2023-03-29T08:38:12.885Z,8.32
2023-03-29T08:40:39.431Z,6.32
2023-03-29T08:43:24.114Z,6.25
2023-03-29T08:46:35.424Z,7.45
2023-03-29T08:49:30.566Z,7.72
2023-03-29T08:52:01.172Z,6.43
2023-03-29T08:54:36.506Z,5.90
2023-03-29T08:57:15.989Z,5.32
2023-03-29T08:59:49.668Z,6.57
2023-03-29T09:02:22.431Z,7.43
2023-03-29T09:04:56.201Z,6.53
2023-03-29T09:07:29.809Z,7.20
2023-03-29T09:09:57.658Z,6.03
2023-03-29T09:12:40.240Z,7.03
2023-03-29T09:15:13.225Z,6.88
2023-03-29T09:17:53.709Z,6.75
2023-03-29T09:20:29.828Z,7.30
2023-03-29T09:23:08.242Z,7.22
2023-03-29T09:26:00.737Z,6.70
2023-03-29T09:28:49.466Z,7.07
2023-03-29T09:31:21.289Z,6.95
2023-03-29T09:33:56.782Z,5.50
2023-03-29T09:36:35.843Z,6.72
2023-03-29T09:39:04.330Z,7.38
2023-03-29T09:41:39.075Z,5.97
2023-03-29T09:44:15.005Z,5.32
2023-03-29T09:46:54.019Z,5.75
2023-03-29T09:49:27.117Z,6.97
2023-03-29T09:51:58.045Z,6.95
2023-03-29T09:54:24.501Z,6.80
2023-03-29T09:57:04.546Z,5.60
2023-03-29T09:59:31.389Z,7.32
2023-03-29T10:02:07.729Z,5.13
2023-03-29T10:04:34.402Z,6.75
2023-03-29T10:07:01.476Z,6.85
2023-03-29T10:09:29.860Z,5.85
2023-03-29T10:12:10.512Z,7.30
2023-03-29T10:14:40.996Z,5.70
2023-03-29T10:17:14.013Z,4.72
2023-03-29T10:19:49.091Z,5.88
2023-03-29T10:22:19.238Z,4.72
2023-03-29T10:24:48.988Z,5.30
2023-03-29T10:27:20.296Z,5.95
2023-03-29T10:29:46.825Z,5.63
2023-03-29T10:32:14.706Z,4.60
2023-03-29T10:34:41.309Z,6.03
2023-03-29T10:37:10.303Z,5.40
2023-03-29T10:39:36.841Z,4.60
2023-03-29T10:42:04.202Z,5.40
2023-03-29T10:44:34.547Z,4.82
2023-03-29T10:47:09.051Z,4.78
2023-03-29T10:49:44.341Z,5.00
2023-03-29T10:52:13.897Z,5.00
2023-03-29T10:54:40.475Z,5.75
2023-03-29T10:57:10.651Z,6.20
2023-03-29T11:02:30.217Z,5.10
2023-03-29T11:05:08.895Z,6.32
2023-03-29T11:07:43.604Z,5.50
2023-03-29T11:10:28.969Z,6.70
2023-03-29T11:13:04.047Z,5.10
2023-03-29T11:15:46.908Z,5.10
2023-03-29T11:18:43.247Z,5.65
2023-03-29T11:21:19.414Z,5.80
2023-03-29T11:23:53.532Z,5.68
2023-03-29T11:26:24.501Z,5.63
2023-03-29T11:28:56.335Z,5.20
2023-03-29T11:31:36.503Z,6.28
2023-03-29T11:34:20.435Z,5.55
2023-03-29T11:36:54.772Z,5.43
2023-03-29T11:39:34.378Z,4.32
2023-03-29T11:42:07.751Z,4.78
2023-03-29T11:44:36.203Z,6.32
2023-03-29T11:47:10.900Z,5.80
2023-03-29T11:49:41.392Z,5.65
2023-03-29T11:52:13.026Z,5.43
2023-03-29T11:54:45.960Z,4.50
2023-03-29T11:57:19.631Z,5.38
2023-03-29T11:59:55.024Z,6.03
2023-03-29T12:02:28.274Z,5.53
2023-03-29T12:04:58.729Z,5.97
2023-03-29T12:07:30.456Z,5.05
2023-03-29T12:10:01.385Z,4.50
2023-03-29T12:12:36.193Z,5.43
2023-03-29T12:15:05.615Z,4.10
2023-03-29T12:17:39.231Z,4.50
2023-03-29T12:20:15.093Z,5.07
2023-03-29T12:22:46.649Z,5.03
2023-03-29T12:25:18.479Z,4.85
2023-03-29T12:27:57.355Z,4.90
2023-03-29T12:30:34.727Z,5.75
2023-03-29T12:33:20.621Z,3.15
2023-03-29T12:36:18.838Z,4.47
2023-03-29T12:39:03.920Z,4.97
2023-03-29T12:41:48.877Z,4.70
2023-03-29T12:44:51.353Z,3.75
2023-03-29T12:47:26.462Z,4.90
2023-03-29T12:49:55.949Z,4.22
2023-03-29T12:52:26.787Z,5.28
2023-03-29T12:54:55.440Z,4.15
2023-03-29T12:57:26.875Z,3.97
2023-03-29T12:59:53.428Z,4.90
2023-03-29T13:02:36.120Z,4.30
2023-03-29T13:05:04.497Z,3.50
2023-03-29T13:07:43.943Z,2.97
2023-03-29T13:10:30.461Z,3.97
2023-03-29T13:12:57.083Z,3.97
2023-03-29T13:15:26.260Z,4.82
2023-03-29T13:17:59.928Z,4.45
2023-03-29T13:20:41.996Z,3.65
2023-03-29T13:23:26.153Z,4.68
2023-03-29T13:26:05.856Z,4.88
2023-03-29T13:28:42.272Z,4.72
2023-03-29T13:31:24.282Z,3.85
2023-03-29T13:34:00.036Z,3.40
2023-03-29T13:36:40.350Z,4.20
2023-03-29T13:39:14.730Z,3.10
2023-03-29T13:41:47.941Z,4.55
2023-03-29T13:44:25.611Z,3.70
2023-03-29T13:47:03.725Z,3.63
2023-03-29T13:49:33.925Z,4.28
2023-03-29T13:52:10.368Z,3.92
2023-03-29T13:54:41.999Z,4.75
2023-03-29T13:57:15.347Z,5.38
2023-03-29T13:59:51.418Z,4.32
2023-03-29T14:02:30.799Z,4.53
2023-03-29T14:05:00.179Z,3.90
2023-03-29T14:07:30.082Z,4.47
2023-03-29T14:09:58.333Z,3.78
2023-03-29T14:12:31.660Z,4.07
2023-03-29T14:15:01.661Z,4.28
2023-03-29T14:19:57.158Z,4.40
2023-03-29T14:22:23.689Z,3.78
2023-03-29T14:24:54.366Z,4.55
2023-03-29T14:27:21.673Z,3.90
2023-03-29T14:29:50.033Z,3.70
2023-03-29T14:32:18.013Z,3.90
2023-03-29T14:34:48.048Z,4.82
2023-03-29T14:39:43.452Z,4.45
2023-03-29T14:42:15.985Z,4.10
2023-03-29T14:44:43.619Z,4.63
2023-03-29T14:47:17.569Z,3.50
2023-03-29T14:49:44.938Z,4.35
2023-03-29T14:52:13.747Z,4.20
2023-03-29T14:54:44.196Z,3.90
2023-03-29T14:57:15.458Z,3.95
2023-03-29T14:59:42.913Z,3.38
2023-03-29T15:02:23.293Z,3.63
2023-03-29T15:04:55.543Z,3.80
2023-03-29T15:07:22.978Z,3.70
2023-03-29T15:09:49.669Z,3.65
2023-03-29T15:12:17.698Z,3.92
2023-03-29T15:14:44.531Z,4.15
2023-03-29T15:17:27.002Z,4.20
2023-03-29T15:20:00.457Z,3.95
2023-03-29T15:22:34.374Z,4.18
2023-03-29T15:25:01.506Z,3.92
2023-03-29T15:27:40.085Z,3.85
2023-03-29T15:30:13.083Z,3.42
2023-03-29T15:32:39.761Z,3.72
2023-03-29T15:35:08.802Z,3.15
2023-03-29T15:37:35.616Z,3.88
2023-03-29T15:40:02.217Z,3.42
2023-03-29T15:42:30.012Z,4.68
2023-03-29T15:44:56.580Z,3.70
2023-03-29T15:47:23.078Z,3.55
2023-03-29T15:49:49.727Z,3.60
2023-03-29T15:52:16.152Z,3.72
2023-03-29T15:54:42.637Z,2.67
2023-03-29T15:57:13.625Z,2.90
2023-03-29T15:59:42.018Z,3.63
2023-03-29T16:02:12.631Z,3.42
2023-03-29T16:04:39.192Z,3.45
2023-03-29T16:07:10.118Z,2.55
2023-03-29T16:09:36.508Z,3.30
2023-03-29T16:12:03.350Z,3.35
2023-03-29T16:14:30.904Z,3.00
2023-03-29T16:17:00.179Z,3.42
2023-03-29T16:19:29.030Z,4.53
2023-03-29T16:21:55.646Z,5.15
2023-03-29T16:24:24.751Z,4.65
2023-03-29T16:26:54.010Z,4.25
2023-03-29T16:29:22.384Z,4.80
2023-03-29T16:31:49.694Z,5.45
2023-03-29T16:34:17.640Z,4.90
2023-03-29T16:36:44.819Z,5.25
2023-03-29T16:39:11.946Z,4.47
2023-03-29T16:41:38.938Z,5.15
2023-03-29T16:44:05.454Z,3.97
2023-03-29T16:46:31.973Z,3.95
2023-03-29T16:48:58.444Z,4.85
2023-03-29T16:51:26.432Z,4.65
2023-03-29T16:53:52.823Z,4.30
2023-03-29T16:56:19.482Z,4.72
2023-03-29T16:58:46.335Z,5.25
2023-03-29T17:01:14.372Z,4.78
2023-03-29T17:03:40.814Z,5.40
2023-03-29T17:06:08.723Z,6.00
2023-03-29T17:08:37.127Z,4.95
2023-03-29T17:11:03.970Z,5.45
2023-03-29T17:13:30.428Z,5.75
2023-03-29T17:15:57.218Z,4.55
2023-03-29T17:18:27.852Z,5.38
2023-03-29T17:20:56.565Z,6.20
2023-03-29T17:23:23.780Z,5.72
2023-03-29T17:25:54.236Z,5.82
2023-03-29T17:28:20.651Z,6.38
2023-03-29T17:30:47.120Z,5.18
2023-03-29T17:33:13.535Z,5.50
2023-03-29T17:35:41.627Z,6.03
2023-03-29T17:38:08.100Z,6.35
2023-03-29T17:40:34.886Z,6.35
2023-03-29T17:43:02.628Z,7.53
2023-03-29T17:45:30.691Z,6.50
2023-03-29T17:47:57.128Z,6.78
2023-03-29T17:50:24.621Z,6.68
2023-03-29T17:52:51.022Z,5.75
2023-03-29T17:55:17.756Z,6.07
2023-03-29T17:57:44.240Z,6.50
2023-03-29T18:00:16.125Z,8.18
2023-03-29T18:02:43.203Z,7.20
2023-03-29T18:05:10.248Z,5.82
2023-03-29T18:07:37.308Z,5.97
2023-03-29T18:10:04.636Z,5.65
2023-03-29T18:12:31.162Z,6.03
2023-03-29T18:14:57.628Z,5.22
2023-03-29T18:17:25.514Z,4.32
2023-03-29T18:19:54.417Z,4.45
2023-03-29T18:22:20.998Z,4.72
2023-03-29T18:24:47.467Z,4.57
2023-03-29T18:27:13.959Z,4.95
2023-03-29T18:29:40.517Z,5.57
2023-03-29T18:32:07.216Z,6.57
2023-03-29T18:34:35.032Z,5.82
2023-03-29T18:37:01.542Z,6.22
2023-03-29T18:39:28.182Z,6.00
2023-03-29T18:41:54.654Z,6.22
2023-03-29T18:44:21.108Z,7.03
2023-03-29T18:46:47.593Z,5.40
2023-03-29T18:49:14.102Z,5.45
2023-03-29T18:51:41.928Z,5.13
2023-03-29T18:54:08.386Z,6.38
2023-03-29T18:56:34.899Z,3.40
2023-03-29T18:59:01.324Z,4.05
2023-03-29T19:01:27.815Z,5.60
2023-03-29T19:03:54.374Z,4.35
2023-03-29T19:06:20.864Z,5.82
2023-03-29T19:08:48.619Z,5.57
2023-03-29T19:11:15.086Z,5.05
2023-03-29T19:13:41.732Z,5.05
2023-03-29T19:16:08.608Z,3.88
2023-03-29T19:18:35.392Z,5.70
2023-03-29T19:21:01.842Z,5.82
2023-03-29T19:23:35.365Z,6.03
2023-03-29T19:30:01.754Z,4.72
2023-03-29T19:36:07.653Z,3.85
2023-03-29T19:38:56.394Z,4.93
2023-03-29T19:41:30.221Z,6.95
2023-03-29T19:43:56.800Z,4.20
2023-03-29T19:46:23.367Z,4.55
2023-03-29T19:48:52.054Z,4.80
2023-03-29T19:51:18.688Z,4.68
2023-03-29T19:53:45.119Z,4.63
2023-03-29T19:56:11.587Z,4.53
2023-03-29T19:58:39.413Z,5.50
2023-03-29T20:01:06.198Z,3.85
2023-03-29T20:03:32.790Z,3.30
2023-03-29T20:05:59.961Z,4.53
2023-03-29T20:08:26.525Z,4.40
2023-03-29T20:10:56.886Z,5.07
2023-03-29T20:16:07.334Z,4.70
2023-03-29T20:18:33.816Z,5.53
2023-03-29T20:21:00.881Z,5.13
2023-03-29T20:23:27.557Z,5.38
2023-03-29T20:25:54.190Z,5.18
2023-03-29T20:28:20.717Z,6.03
2023-03-29T20:30:47.232Z,5.07
2023-03-29T20:33:14.985Z,5.28
2023-03-29T20:35:41.424Z,6.32
2023-03-29T20:38:07.928Z,5.60
2023-03-29T20:40:34.750Z,5.93
2023-03-29T20:43:01.615Z,6.18
2023-03-29T20:45:28.136Z,5.38
2023-03-29T20:47:54.635Z,6.07
2023-03-29T20:50:22.714Z,4.13
2023-03-29T20:52:49.132Z,5.38
2023-03-29T20:55:15.799Z,7.05
2023-03-29T20:57:42.172Z,6.57
2023-03-29T21:00:09.428Z,6.50
2023-03-29T21:02:35.991Z,4.88
2023-03-29T21:05:02.476Z,5.85
2023-03-29T21:07:30.209Z,4.68
2023-03-29T21:09:56.693Z,4.93
2023-03-29T21:12:23.184Z,3.55
2023-03-29T21:14:49.973Z,4.75
2023-03-29T21:17:16.444Z,5.25
2023-03-29T21:19:42.825Z,6.30
2023-03-29T21:22:09.263Z,4.60
2023-03-29T21:24:36.985Z,5.55
2023-03-29T21:27:03.569Z,4.47
2023-03-29T21:29:30.003Z,5.13
2023-03-29T21:31:56.767Z,5.65
2023-03-29T21:34:23.242Z,5.50
2023-03-29T21:36:49.941Z,5.30
2023-03-29T21:39:16.419Z,3.22
2023-03-29T21:41:44.249Z,3.63
2023-03-29T21:44:10.708Z,4.75
2023-03-29T21:46:37.247Z,4.45
2023-03-29T21:49:03.708Z,5.07
2023-03-29T21:51:30.166Z,4.00
2023-03-29T21:53:56.547Z,4.32
2023-03-29T21:56:23.020Z,5.25
2023-03-29T21:58:50.829Z,4.85
2023-03-29T22:01:17.545Z,5.63
2023-03-29T22:03:43.973Z,4.43
2023-03-29T22:06:13.879Z,4.70
2023-03-29T22:08:40.666Z,4.72
2023-03-29T22:11:09.396Z,4.90
2023-03-29T22:13:37.111Z,4.82
2023-03-29T22:16:05.992Z,3.33
2023-03-29T22:18:34.615Z,4.72
2023-03-29T22:21:01.296Z,4.85
2023-03-29T22:23:27.881Z,4.60
2023-03-29T22:25:54.311Z,5.28
2023-03-29T22:28:20.730Z,4.40
2023-03-29T22:30:47.083Z,6.07
2023-03-29T22:33:14.842Z,5.15
2023-03-29T22:35:41.322Z,4.38
2023-03-29T22:38:07.784Z,3.63
2023-03-29T22:40:39.193Z,5.88
2023-03-29T22:43:05.730Z,4.50
2023-03-29T22:45:32.163Z,4.68
2023-03-29T22:47:58.636Z,4.28
2023-03-29T22:50:26.426Z,4.38
2023-03-29T22:52:52.872Z,3.88
2023-03-29T22:55:19.364Z,3.38
2023-03-29T22:57:45.795Z,3.15
2023-03-29T23:00:13.169Z,4.95
2023-03-29T23:02:39.744Z,3.35
2023-03-29T23:05:07.450Z,5.43
2023-03-29T23:07:35.301Z,5.90
2023-03-29T23:10:03.287Z,6.75
2023-03-29T23:12:29.711Z,3.55
2023-03-29T23:14:56.183Z,5.82
2023-03-29T23:17:22.662Z,4.82
2023-03-29T23:19:49.072Z,3.83
2023-03-29T23:22:15.681Z,6.07
2023-03-29T23:24:43.399Z,4.30
2023-03-29T23:27:09.955Z,4.53
2023-03-29T23:29:36.341Z,4.97
2023-03-29T23:32:02.735Z,4.28
2023-03-29T23:34:29.103Z,4.57
2023-03-29T23:36:55.626Z,3.70
2023-03-29T23:39:22.445Z,5.95
2023-03-29T23:41:50.201Z,4.90
2023-03-29T23:44:16.701Z,4.20
2023-03-29T23:46:43.229Z,4.78
2023-03-29T23:49:09.753Z,3.78
2023-03-29T23:51:36.254Z,4.78
2023-03-29T23:54:02.769Z,6.05
2023-03-29T23:56:29.207Z,4.38
2023-03-29T23:58:56.943Z,5.95
